Time;durP1;ratioP1;P1;durP2;ratioP2;P2;SDS_P1;SDS_P2;PMS_P1;PMS_P2;Temp;Humidity;BMP_temperature;BMP_pressure;BME280_temperature;BME280_humidity;BME280_pressure;Samples;Min_cycle;Max_cycle;Signal;HPM_P1;HPM_P2
2021/05/17 00:00:34;;;;;;;12.18;1.85;;;11.50;99.90;;;;;;4410369;32;20070;-80
2021/05/17 00:03:01;;;;;;;0.30;0.30;;;11.50;99.90;;;;;;4415297;32;20075;-80
2021/05/17 00:05:29;;;;;;;0.40;0.40;;;11.50;99.90;;;;;;4414228;32;20062;-80
2021/05/17 00:07:55;;;;;;;0.40;0.40;;;11.40;99.90;;;;;;4418616;32;20084;-80
2021/05/17 00:10:21;;;;;;;0.30;0.30;;;11.50;99.90;;;;;;4409707;32;20093;-80
2021/05/17 00:12:46;;;;;;;0.32;0.32;;;11.60;99.90;;;;;;4417392;32;20057;-80
2021/05/17 00:15:15;;;;;;;0.13;0.13;;;11.70;99.90;;;;;;4416765;32;20127;-79
2021/05/17 00:17:41;;;;;;;0.32;0.32;;;11.70;99.90;;;;;;4414174;32;20062;-79
2021/05/17 00:20:08;;;;;;;1.42;0.82;;;11.60;99.90;;;;;;4411336;32;20058;-79
2021/05/17 00:22:36;;;;;;;0.30;0.30;;;11.60;99.90;;;;;;4410306;32;20065;-79
2021/05/17 00:25:04;;;;;;;0.60;0.60;;;11.60;99.90;;;;;;4409799;32;20140;-79
2021/05/17 00:27:30;;;;;;;0.40;0.40;;;11.70;99.90;;;;;;4410543;32;20074;-80
2021/05/17 00:29:56;;;;;;;0.30;0.30;;;11.70;99.90;;;;;;4411686;32;20058;-79
2021/05/17 00:32:23;;;;;;;0.40;0.40;;;11.70;99.90;;;;;;4413249;32;20609;-79
2021/05/17 00:34:49;;;;;;;0.60;0.60;;;11.70;99.90;;;;;;4409766;32;20524;-79
2021/05/17 00:37:15;;;;;;;0.30;0.30;;;11.70;99.90;;;;;;4409426;32;20062;-79
2021/05/17 00:39:42;;;;;;;0.40;0.40;;;11.60;99.90;;;;;;4411548;32;20181;-79
2021/05/17 00:42:08;;;;;;;0.20;0.20;;;11.60;99.90;;;;;;4411021;32;20070;-79
2021/05/17 00:44:38;;;;;;;0.30;0.30;;;11.50;99.90;;;;;;4409756;32;20062;-80
2021/05/17 00:47:11;;;;;;;0.32;0.32;;;11.40;99.90;;;;;;4413730;32;20404;-80
2021/05/17 00:49:46;;;;;;;0.30;0.30;;;11.20;99.90;;;;;;4409816;32;20066;-79
2021/05/17 00:52:14;;;;;;;1.85;1.08;;;11.10;99.90;;;;;;4409794;32;20070;-79
2021/05/17 00:54:40;;;;;;;0.43;0.43;;;11.10;99.90;;;;;;4415578;32;20057;-79
2021/05/17 00:57:07;;;;;;;0.40;0.40;;;11.00;99.90;;;;;;4412427;32;20536;-79
2021/05/17 00:59:34;;;;;;;0.30;0.30;;;10.80;99.90;;;;;;4414062;32;20358;-79
2021/05/17 01:02:01;;;;;;;0.43;0.43;;;10.70;99.90;;;;;;4417375;32;20077;-79
2021/05/17 01:04:26;;;;;;;0.35;0.35;;;10.70;99.90;;;;;;4413619;32;20070;-80
2021/05/17 01:07:02;;;;;;;0.30;0.30;;;10.80;99.90;;;;;;4410424;32;20074;-81
2021/05/17 01:09:31;;;;;;;0.30;0.30;;;10.90;99.90;;;;;;4412218;32;20102;-79
2021/05/17 01:12:04;;;;;;;0.30;0.30;;;10.90;99.90;;;;;;4407477;32;20070;-79
2021/05/17 01:14:32;;;;;;;0.20;0.20;;;10.80;99.90;;;;;;4412079;32;20061;-79
2021/05/17 01:17:01;;;;;;;0.45;0.45;;;10.80;99.90;;;;;;4409691;32;20070;-79
2021/05/17 01:19:38;;;;;;;0.40;0.40;;;10.60;99.90;;;;;;4409475;32;20066;-79
2021/05/17 01:22:12;;;;;;;0.20;0.20;;;10.60;99.90;;;;;;4409581;32;20063;-79
2021/05/17 01:24:49;;;;;;;;;;;;;;;;;;;;;
2021/05/17 01:27:26;;;;;;;0.35;0.35;;;10.50;99.90;;;;;;4407089;32;20090;-79
2021/05/17 01:29:51;;;;;;;0.50;0.50;;;10.60;99.90;;;;;;4413317;32;20062;-79
2021/05/17 01:32:17;;;;;;;0.20;0.20;;;10.50;99.90;;;;;;4414185;32;20508;-79
2021/05/17 01:34:43;;;;;;;0.30;0.30;;;10.50;99.90;;;;;;4414037;32;20082;-79
2021/05/17 01:37:09;;;;;;;0.32;0.32;;;10.60;99.90;;;;;;4410705;32;20129;-79
2021/05/17 01:39:35;;;;;;;0.20;0.20;;;10.50;99.90;;;;;;4414190;32;20082;-82
2021/05/17 01:42:01;;;;;;;0.30;0.30;;;10.50;99.90;;;;;;4407769;32;20101;-78
2021/05/17 01:44:29;;;;;;;0.20;0.20;;;10.50;99.90;;;;;;4410412;32;20061;-78
2021/05/17 01:46:58;;;;;;;0.32;0.32;;;10.60;99.90;;;;;;4405787;32;20066;-79
2021/05/17 01:49:31;;;;;;;0.30;0.30;;;10.70;99.90;;;;;;4409038;32;20086;-78
2021/05/17 01:51:57;;;;;;;0.20;0.20;;;10.70;99.90;;;;;;4411421;32;20066;-79
2021/05/17 01:54:30;;;;;;;0.45;0.45;;;10.60;99.90;;;;;;4407758;32;20086;-79
2021/05/17 01:56:57;;;;;;;0.32;0.32;;;10.60;99.90;;;;;;4409420;32;20491;-81
2021/05/17 01:59:31;;;;;;;0.85;0.40;;;10.40;99.90;;;;;;4409043;32;20065;-78
2021/05/17 02:01:56;;;;;;;0.40;0.40;;;10.30;99.90;;;;;;4405701;32;20424;-80
2021/05/17 02:04:25;;;;;;;0.25;0.25;;;10.40;99.90;;;;;;4409435;32;20066;-79
2021/05/17 02:06:50;;;;;;;0.52;0.52;;;10.40;99.90;;;;;;4411307;32;20086;-81
2021/05/17 02:09:17;;;;;;;0.35;0.35;;;10.40;99.90;;;;;;4407989;32;20433;-79
2021/05/17 02:11:42;;;;;;;1.48;1.02;;;10.50;99.90;;;;;;4411304;32;20087;-79
2021/05/17 02:14:11;;;;;;;0.30;0.30;;;10.60;99.90;;;;;;4408196;32;20054;-79
2021/05/17 02:16:37;;;;;;;0.30;0.30;;;10.70;99.90;;;;;;4406311;32;20063;-79
2021/05/17 02:19:06;;;;;;;1.08;0.77;;;10.90;99.90;;;;;;4410762;32;20095;-79
2021/05/17 02:21:32;;;;;;;0.70;0.50;;;11.00;99.90;;;;;;4406331;32;20086;-79
2021/05/17 02:24:01;;;;;;;0.30;0.30;;;11.10;99.90;;;;;;4407717;32;20061;-79
2021/05/17 02:26:27;;;;;;;0.37;0.35;;;11.00;99.90;;;;;;4413074;32;20136;-79
2021/05/17 02:28:57;;;;;;;0.40;0.40;;;11.00;99.90;;;;;;4412450;32;20058;-79
2021/05/17 02:31:23;;;;;;;3.20;0.67;;;11.00;99.90;;;;;;4412242;32;20066;-78
2021/05/17 02:33:48;;;;;;;0.73;0.40;;;10.90;99.90;;;;;;4407298;32;20501;-79
2021/05/17 02:36:14;;;;;;;0.30;0.30;;;10.90;99.90;;;;;;4411071;32;20136;-79
2021/05/17 02:38:40;;;;;;;1.85;0.80;;;11.00;99.90;;;;;;4411372;32;20058;-79
2021/05/17 02:41:08;;;;;;;0.40;0.40;;;11.00;99.90;;;;;;4407903;32;20050;-79
2021/05/17 02:43:35;;;;;;;0.55;0.50;;;11.00;99.90;;;;;;4410647;32;20050;-79
2021/05/17 02:46:02;;;;;;;0.40;0.40;;;11.00;99.90;;;;;;4411932;32;20113;-79
2021/05/17 02:48:29;;;;;;;0.32;0.32;;;11.00;99.90;;;;;;4411628;32;20094;-79
2021/05/17 02:50:55;;;;;;;0.30;0.30;;;11.00;99.90;;;;;;4409892;32;20124;-79
2021/05/17 02:53:36;;;;;;;1.00;0.40;;;11.10;99.90;;;;;;4406670;32;20093;-82
2021/05/17 02:56:11;;;;;;;0.22;0.22;;;11.20;99.90;;;;;;4409728;32;20081;-79
2021/05/17 02:58:38;;;;;;;0.40;0.40;;;11.00;99.90;;;;;;4407091;32;20090;-79
2021/05/17 03:01:12;;;;;;;0.35;0.35;;;11.00;99.90;;;;;;4415000;32;20389;-78
2021/05/17 03:03:57;;;;;;;2.05;1.15;;;10.90;99.90;;;;;;4411736;32;20066;-79
2021/05/17 03:06:33;;;;;;;0.30;0.30;;;11.00;99.90;;;;;;4405162;32;20132;-77
2021/05/17 03:09:01;;;;;;;1.60;1.27;;;10.90;99.90;;;;;;4402774;32;20062;-77
2021/05/17 03:11:28;;;;;;;0.30;0.30;;;10.80;99.90;;;;;;4407584;32;20054;-77
2021/05/17 03:13:57;;;;;;;0.40;0.40;;;10.70;99.90;;;;;;4407310;32;20125;-77
2021/05/17 03:16:25;;;;;;;0.30;0.30;;;10.80;99.90;;;;;;4403807;32;20413;-76
2021/05/17 03:18:53;;;;;;;0.30;0.30;;;10.80;99.90;;;;;;4405051;32;20082;-76
2021/05/17 03:21:21;;;;;;;0.52;0.52;;;10.70;99.90;;;;;;4403090;32;20063;-76
2021/05/17 03:23:49;;;;;;;0.30;0.30;;;10.60;99.90;;;;;;4402975;32;20133;-76
2021/05/17 03:26:17;;;;;;;0.30;0.30;;;10.60;99.90;;;;;;4402945;32;20058;-76
2021/05/17 03:28:43;;;;;;;0.30;0.30;;;10.60;99.90;;;;;;4403468;32;20095;-76
2021/05/17 03:31:08;;;;;;;0.30;0.30;;;10.60;99.90;;;;;;4409057;32;20049;-76
2021/05/17 03:33:34;;;;;;;0.45;0.45;;;10.70;99.90;;;;;;4406700;32;20398;-76
2021/05/17 03:35:59;;;;;;;0.40;0.40;;;10.80;99.90;;;;;;4405537;32;20093;-76
2021/05/17 03:38:25;;;;;;;0.30;0.30;;;10.90;99.90;;;;;;4406405;32;20054;-76
2021/05/17 03:40:51;;;;;;;0.20;0.20;;;10.90;99.90;;;;;;4406095;32;20518;-76
2021/05/17 03:43:16;;;;;;;0.30;0.30;;;11.00;99.90;;;;;;4407522;32;20058;-76
2021/05/17 03:45:42;;;;;;;1.35;0.70;;;11.00;99.90;;;;;;4407834;32;20070;-76
2021/05/17 03:48:07;;;;;;;0.20;0.20;;;10.90;99.90;;;;;;4404596;32;20125;-76
2021/05/17 03:50:33;;;;;;;0.40;0.40;;;11.00;99.90;;;;;;4406560;32;20121;-77
2021/05/17 03:52:58;;;;;;;0.25;0.25;;;10.90;99.90;;;;;;4404858;32;20055;-76
2021/05/17 03:55:24;;;;;;;0.30;0.30;;;10.90;99.90;;;;;;4407318;32;20143;-76
2021/05/17 03:57:49;;;;;;;0.30;0.30;;;10.90;99.90;;;;;;4409845;32;20085;-77
2021/05/17 04:00:16;;;;;;;0.50;0.50;;;11.00;99.90;;;;;;4408100;32;20463;-77
2021/05/17 04:02:43;;;;;;;0.30;0.30;;;11.10;99.90;;;;;;4409338;32;20066;-77
2021/05/17 04:06:23;;;;;;;0.45;0.40;;;11.20;99.90;;;;;;4405119;32;20066;-77
2021/05/17 04:08:12;;;;;;;0.40;0.40;;;11.20;99.90;;;;;;4396512;32;20523;-76
2021/05/17 04:13:25;;;;;;;1.10;0.50;;;11.30;99.90;;;;;;4395606;32;20070;-77
2021/05/17 04:13:31;;;;;;;0.30;0.30;;;11.30;99.90;;;;;;4408418;32;20531;-77
2021/05/17 04:15:52;;;;;;;0.30;0.30;;;11.20;99.90;;;;;;4406558;32;20121;-77
2021/05/17 04:18:19;;;;;;;0.30;0.30;;;11.20;99.90;;;;;;4405394;32;20074;-77
2021/05/17 04:20:45;;;;;;;0.40;0.40;;;11.10;99.90;;;;;;4405936;32;20517;-77
2021/05/17 04:23:11;;;;;;;1.33;0.93;;;11.10;99.90;;;;;;4406238;32;20069;-77
2021/05/17 04:25:37;;;;;;;0.30;0.30;;;11.00;99.90;;;;;;4408193;32;20429;-77
2021/05/17 04:28:03;;;;;;;0.47;0.47;;;11.00;99.90;;;;;;4406747;32;20062;-76
2021/05/17 04:30:28;;;;;;;0.30;0.30;;;11.10;99.90;;;;;;4407015;32;20508;-77
2021/05/17 04:32:54;;;;;;;1.85;0.62;;;11.20;99.90;;;;;;4404769;32;20062;-77
2021/05/17 04:35:19;;;;;;;0.30;0.30;;;11.30;99.90;;;;;;4406325;32;20082;-76
2021/05/17 04:37:45;;;;;;;0.40;0.40;;;11.30;99.90;;;;;;4407902;32;20062;-77
2021/05/17 04:40:11;;;;;;;0.40;0.40;;;11.30;99.90;;;;;;4407965;32;20057;-77
2021/05/17 04:42:37;;;;;;;0.40;0.40;;;11.40;99.90;;;;;;4406935;32;20062;-77
2021/05/17 04:45:05;;;;;;;2.35;1.15;;;11.30;99.90;;;;;;4403647;32;20556;-77
2021/05/17 04:47:30;;;;;;;0.37;0.37;;;11.10;99.90;;;;;;4409680;32;20109;-77
2021/05/17 04:49:56;;;;;;;0.68;0.68;;;10.90;99.90;;;;;;4403780;32;20073;-77
2021/05/17 04:52:21;;;;;;;0.32;0.32;;;11.00;99.90;;;;;;4404319;32;20469;-77
2021/05/17 04:54:47;;;;;;;0.32;0.32;;;11.00;99.90;;;;;;4404650;32;20066;-76
2021/05/17 04:57:12;;;;;;;0.30;0.30;;;11.00;99.90;;;;;;4405142;32;20079;-76
2021/05/17 04:59:38;;;;;;;0.20;0.20;;;11.10;99.90;;;;;;4405278;32;20401;-76
2021/05/17 05:02:05;;;;;;;0.30;0.30;;;11.20;99.90;;;;;;4400745;32;20078;-76
2021/05/17 05:04:31;;;;;;;0.30;0.30;;;11.30;99.90;;;;;;4408447;32;20062;-76
2021/05/17 05:06:57;;;;;;;0.30;0.30;;;11.50;99.90;;;;;;4403667;32;20489;-76
2021/05/17 05:09:23;;;;;;;0.30;0.30;;;11.60;99.90;;;;;;4405152;32;20090;-77
2021/05/17 05:11:48;;;;;;;0.40;0.40;;;11.70;99.90;;;;;;4405178;32;20495;-76
2021/05/17 05:14:14;;;;;;;0.28;0.28;;;11.80;99.90;;;;;;4405413;32;20562;-77
2021/05/17 05:16:39;;;;;;;0.30;0.30;;;11.80;99.90;;;;;;4395768;32;20157;-77
2021/05/17 05:19:05;;;;;;;0.30;0.30;;;11.90;99.90;;;;;;4397067;32;20057;-77
2021/05/17 05:21:32;;;;;;;0.20;0.20;;;12.00;99.90;;;;;;4408457;32;20527;-77
2021/05/17 05:23:57;;;;;;;0.30;0.30;;;12.00;99.90;;;;;;4405739;32;20082;-76
2021/05/17 05:26:34;;;;;;;1.35;0.52;;;12.10;99.90;;;;;;4398319;32;20185;-76
2021/05/17 05:31:50;;;;;;;0.30;0.30;;;12.30;99.90;;;;;;4383893;32;20073;-76
2021/05/17 05:34:16;;;;;;;0.50;0.50;;;12.30;99.90;;;;;;4401907;32;20063;-76
2021/05/17 05:36:41;;;;;;;0.52;0.52;;;12.30;99.90;;;;;;4403879;32;20154;-77
2021/05/17 05:39:07;;;;;;;0.40;0.40;;;12.20;99.90;;;;;;4403618;32;20124;-77
2021/05/17 05:41:33;;;;;;;0.40;0.40;;;12.20;99.90;;;;;;4405393;32;20058;-77
2021/05/17 05:43:58;;;;;;;0.40;0.40;;;12.20;99.90;;;;;;4400145;32;20077;-75
2021/05/17 05:46:24;;;;;;;0.28;0.28;;;12.20;99.90;;;;;;4403768;32;20065;-76
2021/05/17 05:48:50;;;;;;;0.28;0.28;;;12.20;99.90;;;;;;4406515;32;20546;-76
2021/05/17 05:51:30;;;;;;;0.40;0.40;;;12.20;99.90;;;;;;4406231;32;20144;-78
2021/05/17 05:53:58;;;;;;;0.30;0.30;;;12.40;99.90;;;;;;4400880;32;20082;-77
2021/05/17 05:56:24;;;;;;;0.30;0.30;;;12.40;99.90;;;;;;4398824;32;20062;-77
2021/05/17 05:58:50;;;;;;;0.30;0.30;;;12.50;99.90;;;;;;4404795;32;20066;-78
2021/05/17 06:01:16;;;;;;;0.37;0.37;;;12.50;99.90;;;;;;4430176;27;20138;-62
2021/05/17 06:03:42;;;;;;;2.85;0.30;;;12.50;99.90;;;;;;4364625;32;20120;-65
2021/05/17 06:08:43;;;;;;;1.05;0.88;;;12.40;99.90;;;;;;4435641;27;20153;-66
2021/05/17 06:11:10;;;;;;;0.50;0.50;;;12.50;99.90;;;;;;4380406;32;20190;-66
2021/05/17 06:13:37;;;;;;;0.20;0.20;;;12.60;99.90;;;;;;4392466;32;20545;-65
2021/05/17 06:16:05;;;;;;;0.30;0.30;;;12.70;99.90;;;;;;4393061;32;20350;-66
2021/05/17 06:18:31;;;;;;;0.30;0.30;;;13.00;99.90;;;;;;4394402;32;20070;-66
2021/05/17 06:20:56;;;;;;;0.20;0.20;;;13.10;99.90;;;;;;4392279;32;20085;-66
2021/05/17 06:23:22;;;;;;;0.20;0.20;;;13.10;99.90;;;;;;4394560;32;20058;-66
2021/05/17 06:25:49;;;;;;;0.20;0.20;;;13.20;99.90;;;;;;4387699;32;20094;-66
2021/05/17 06:28:19;;;;;;;0.47;0.40;;;13.20;99.90;;;;;;4395379;32;20082;-66
2021/05/17 06:30:50;;;;;;;0.30;0.30;;;13.20;99.90;;;;;;4394189;32;20074;-65
2021/05/17 06:33:18;;;;;;;0.30;0.30;;;13.20;99.90;;;;;;4394874;32;20078;-65
2021/05/17 06:35:46;;;;;;;4.10;0.98;;;13.30;99.90;;;;;;4387296;32;20649;-66
2021/05/17 06:38:13;;;;;;;0.20;0.20;;;13.40;99.90;;;;;;4392259;32;20070;-65
2021/05/17 06:40:38;;;;;;;0.40;0.40;;;13.40;99.90;;;;;;4388306;32;20139;-66
2021/05/17 06:43:04;;;;;;;0.30;0.30;;;13.30;99.90;;;;;;4380557;32;20131;-66
2021/05/17 06:45:31;;;;;;;0.20;0.20;;;13.30;99.90;;;;;;4390078;32;20085;-66
2021/05/17 06:47:56;;;;;;;0.20;0.20;;;13.30;99.90;;;;;;4390614;32;20542;-66
2021/05/17 06:50:22;;;;;;;0.20;0.20;;;13.30;99.90;;;;;;4384975;32;20070;-66
2021/05/17 06:52:48;;;;;;;0.30;0.30;;;13.20;99.90;;;;;;4389822;32;20070;-65
2021/05/17 06:55:17;;;;;;;0.20;0.20;;;13.10;99.90;;;;;;4392387;32;20074;-66
2021/05/17 06:58:07;;;;;;;0.20;0.20;;;13.00;99.90;;;;;;4381199;32;20330;-66
2021/05/17 07:00:31;;;;;;;0.28;0.28;;;13.00;99.90;;;;;;4384693;32;20086;-66
2021/05/17 07:02:59;;;;;;;0.30;0.30;;;13.10;99.90;;;;;;4387004;32;20066;-66
2021/05/17 07:05:25;;;;;;;0.30;0.30;;;13.20;99.90;;;;;;4372693;32;20147;-66
2021/05/17 07:11:31;;;;;;;0.20;0.20;;;13.20;99.90;;;;;;4383783;32;20086;-66
2021/05/17 07:11:59;;;;;;;0.30;0.30;;;13.40;99.90;;;;;;4361155;32;20090;-66
2021/05/17 07:13:23;;;;;;;0.20;0.20;;;13.50;99.90;;;;;;4371242;32;20070;-66
2021/05/17 07:15:49;;;;;;;0.35;0.35;;;13.60;99.90;;;;;;4383503;32;20589;-67
2021/05/17 07:18:15;;;;;;;0.25;0.25;;;13.70;99.90;;;;;;4392584;32;20098;-66
2021/05/17 07:23:42;;;;;;;1.98;1.02;;;13.80;99.90;;;;;;4396038;32;20138;-67
2021/05/17 07:25:57;;;;;;;0.30;0.30;;;13.90;99.90;;;;;;4374722;32;20149;-67
2021/05/17 07:28:22;;;;;;;0.28;0.28;;;14.00;99.90;;;;;;4380683;32;20071;-66
2021/05/17 07:30:48;;;;;;;0.37;0.37;;;14.20;99.90;;;;;;4377280;32;20458;-66
2021/05/17 07:33:15;;;;;;;0.28;0.28;;;14.20;99.90;;;;;;4394844;32;20066;-66
2021/05/17 07:35:41;;;;;;;0.20;0.20;;;14.40;99.90;;;;;;4378355;32;20170;-66
2021/05/17 07:38:06;;;;;;;0.30;0.30;;;14.40;99.90;;;;;;4393505;32;20089;-66
2021/05/17 07:40:32;;;;;;;0.22;0.22;;;14.60;99.90;;;;;;4386722;32;20135;-67
2021/05/17 07:42:57;;;;;;;0.20;0.20;;;14.60;99.90;;;;;;4389542;32;20122;-66
2021/05/17 07:45:23;;;;;;;0.20;0.20;;;14.60;99.90;;;;;;4391627;32;20066;-66
2021/05/17 07:47:49;;;;;;;0.30;0.30;;;14.80;99.90;;;;;;4376243;32;20133;-66
2021/05/17 07:50:15;;;;;;;0.22;0.22;;;15.10;99.90;;;;;;4391340;32;20523;-66
2021/05/17 07:52:41;;;;;;;0.25;0.25;;;15.40;99.90;;;;;;4390198;32;20188;-65
2021/05/17 07:55:07;;;;;;;0.28;0.28;;;15.50;99.90;;;;;;4377070;32;20452;-65
2021/05/17 07:57:33;;;;;;;0.30;0.30;;;15.30;99.90;;;;;;4391643;32;20127;-65
2021/05/17 07:59:58;;;;;;;0.30;0.30;;;15.40;99.90;;;;;;4394458;32;20137;-65
2021/05/17 08:02:24;;;;;;;0.30;0.30;;;15.50;99.90;;;;;;4390776;32;20090;-65
2021/05/17 08:04:51;;;;;;;0.22;0.22;;;15.60;99.90;;;;;;4376832;32;20428;-65
2021/05/17 08:07:18;;;;;;;0.20;0.20;;;15.60;99.90;;;;;;4386346;32;20107;-66
2021/05/17 08:09:44;;;;;;;0.30;0.30;;;15.60;99.90;;;;;;4387747;32;20070;-65
2021/05/17 08:12:10;;;;;;;0.30;0.30;;;15.90;99.90;;;;;;4393910;32;20082;-65
2021/05/17 08:14:36;;;;;;;0.20;0.20;;;16.20;99.90;;;;;;4380223;32;20467;-65
2021/05/17 08:17:03;;;;;;;0.20;0.20;;;16.30;99.90;;;;;;4385336;32;20137;-66
2021/05/17 08:19:28;;;;;;;0.20;0.20;;;16.60;99.90;;;;;;4390167;32;20094;-65
2021/05/17 08:21:54;;;;;;;0.30;0.30;;;16.50;99.90;;;;;;4374214;32;20483;-67
2021/05/17 08:24:20;;;;;;;0.30;0.30;;;16.10;99.90;;;;;;4377892;32;20086;-65
2021/05/17 08:26:45;;;;;;;0.30;0.30;;;15.90;99.90;;;;;;4388632;32;20078;-65
2021/05/17 08:29:11;;;;;;;0.20;0.20;;;15.70;99.90;;;;;;4388502;32;20074;-65
2021/05/17 08:31:37;;;;;;;0.20;0.20;;;15.40;99.90;;;;;;4388539;32;20086;-68
2021/05/17 08:34:02;;;;;;;0.35;0.35;;;15.30;99.90;;;;;;4378413;32;20145;-65
2021/05/17 08:36:28;;;;;;;0.40;0.40;;;15.20;99.90;;;;;;4390081;32;20078;-67
2021/05/17 08:38:53;;;;;;;0.20;0.20;;;15.20;99.90;;;;;;4395554;32;20078;-67
2021/05/17 08:41:19;;;;;;;0.20;0.20;;;15.20;99.90;;;;;;4393186;32;20386;-66
2021/05/17 08:43:45;;;;;;;0.20;0.20;;;15.30;99.90;;;;;;4392218;32;20583;-66
2021/05/17 08:46:12;;;;;;;0.20;0.20;;;15.50;99.90;;;;;;4389716;32;20606;-66
2021/05/17 08:48:49;;;;;;;0.20;0.20;;;15.80;99.90;;;;;;4388926;32;20071;-66
2021/05/17 08:51:18;;;;;;;0.20;0.20;;;15.80;99.90;;;;;;4390587;32;20143;-66
2021/05/17 08:53:44;;;;;;;0.20;0.20;;;15.90;99.90;;;;;;4376527;32;20528;-68
2021/05/17 08:56:10;;;;;;;0.55;0.50;;;15.90;99.90;;;;;;4392656;32;20549;-68
2021/05/17 08:58:35;;;;;;;0.20;0.20;;;15.90;99.90;;;;;;4392361;32;20166;-65
2021/05/17 09:01:03;;;;;;;0.20;0.20;;;15.90;99.90;;;;;;4383045;32;20074;-66
2021/05/17 09:03:29;;;;;;;0.20;0.20;;;15.90;99.90;;;;;;4374326;32;20117;-66
2021/05/17 09:05:55;;;;;;;0.20;0.20;;;16.00;99.90;;;;;;4374498;32;20091;-66
2021/05/17 09:08:24;;;;;;;0.73;0.50;;;16.10;99.90;;;;;;4389892;32;20086;-66
2021/05/17 09:10:50;;;;;;;0.22;0.22;;;16.30;99.90;;;;;;4376867;32;20061;-66
2021/05/17 09:13:17;;;;;;;0.20;0.20;;;16.50;99.90;;;;;;4390695;32;20090;-65
2021/05/17 09:15:47;;;;;;;0.45;0.45;;;16.90;99.90;;;;;;4392631;32;20109;-65
2021/05/17 09:18:17;;;;;;;0.20;0.20;;;17.30;99.90;;;;;;4387401;32;20214;-65
2021/05/17 09:20:46;;;;;;;0.30;0.30;;;17.70;99.90;;;;;;4378590;32;20165;-66
2021/05/17 09:23:18;;;;;;;0.57;0.57;;;17.70;99.90;;;;;;4380728;32;20147;-68
2021/05/17 09:26:10;;;;;;;0.20;0.20;;;17.50;99.90;;;;;;4390225;32;20144;-66
2021/05/17 09:28:41;;;;;;;0.20;0.20;;;17.20;99.90;;;;;;4378596;32;20070;-66
2021/05/17 09:31:08;;;;;;;;;;;17.00;99.90;;;;;;4372729;32;20075;-65
2021/05/17 09:33:41;;;;;;;0.20;0.20;;;16.80;99.90;;;;;;4392751;32;19957;-63
2021/05/17 09:36:22;;;;;;;0.20;0.20;;;16.60;99.90;;;;;;4380999;32;20136;-63
2021/05/17 09:39:06;;;;;;;0.22;0.22;;;16.70;99.90;;;;;;4374966;32;78655;-63
2021/05/17 09:41:42;;;;;;;0.20;0.20;;;17.10;99.90;;;;;;4382741;32;20089;-63
2021/05/17 09:44:12;;;;;;;0.20;0.20;;;17.40;99.90;;;;;;4396063;32;20090;-63
2021/05/17 09:47:01;;;;;;;0.30;0.30;;;17.60;99.90;;;;;;4381385;32;20074;-63
2021/05/17 09:49:49;;;;;;;2.35;0.95;;;17.40;99.90;;;;;;4382394;32;20074;-63
2021/05/17 09:52:28;;;;;;;1.65;0.52;;;17.80;99.90;;;;;;4368303;32;20070;-63
2021/05/17 09:55:14;;;;;;;0.30;0.30;;;18.20;99.90;;;;;;4397005;32;20070;-63
2021/05/17 09:57:42;;;;;;;3.10;0.82;;;18.40;99.90;;;;;;4383978;32;20082;-63
2021/05/17 10:00:17;;;;;;;0.20;0.20;;;18.70;99.90;;;;;;4393541;32;20086;-63
2021/05/17 10:02:45;;;;;;;0.20;0.20;;;18.80;99.90;;;;;;4395861;32;20358;-63
2021/05/17 10:05:13;;;;;;;0.20;0.20;;;18.80;99.90;;;;;;4377615;32;20160;-62
2021/05/17 10:07:38;;;;;;;0.20;0.20;;;18.90;99.90;;;;;;4393405;32;20086;-64
2021/05/17 10:10:06;;;;;;;0.20;0.20;;;18.70;99.90;;;;;;4380789;32;20070;-63
2021/05/17 10:12:33;;;;;;;0.30;0.30;;;18.80;99.90;;;;;;4393917;32;20124;-63
2021/05/17 10:14:59;;;;;;;0.20;0.20;;;19.00;99.90;;;;;;4392511;32;20121;-63
2021/05/17 10:17:25;;;;;;;0.20;0.20;;;19.10;99.20;;;;;;4392797;32;20138;-63
2021/05/17 10:19:51;;;;;;;0.20;0.20;;;19.00;99.90;;;;;;4394311;32;20201;-64
2021/05/17 10:22:17;;;;;;;0.25;0.25;;;19.30;99.80;;;;;;4394467;32;20161;-65
2021/05/17 10:24:43;;;;;;;0.32;0.32;;;19.30;99.90;;;;;;4392948;32;20366;-65
2021/05/17 10:27:09;;;;;;;0.20;0.20;;;19.30;99.90;;;;;;4394315;32;20065;-65
2021/05/17 10:29:37;;;;;;;0.20;0.20;;;19.50;99.50;;;;;;4389989;32;20097;-65
2021/05/17 10:32:04;;;;;;;0.22;0.22;;;19.80;99.70;;;;;;4374992;32;20218;-65
2021/05/17 10:34:30;;;;;;;0.30;0.30;;;20.20;99.90;;;;;;4376656;32;20161;-65
2021/05/17 10:37:00;;;;;;;0.20;0.20;;;20.20;98.40;;;;;;4380008;32;20478;-64
2021/05/17 10:39:35;;;;;;;0.20;0.20;;;19.40;98.20;;;;;;4368089;32;20477;-65
2021/05/17 10:46:40;;;;;;;0.20;0.20;;;19.20;98.90;;;;;;4394503;32;20074;-65
2021/05/17 10:48:17;;;;;;;0.20;0.20;;;19.40;97.60;;;;;;4373627;32;20141;-64
2021/05/17 10:50:44;;;;;;;0.28;0.28;;;19.50;99.90;;;;;;4382714;32;20070;-65
2021/05/17 10:53:46;;;;;;;0.20;0.20;;;19.60;97.10;;;;;;4377811;32;20094;-64
2021/05/17 10:56:16;;;;;;;0.40;0.40;;;19.40;97.10;;;;;;4387321;32;20310;-65
2021/05/17 11:00:32;;;;;;;0.60;0.40;;;19.60;96.40;;;;;;4377598;32;20069;-64
2021/05/17 11:01:56;;;;;;;0.28;0.28;;;20.10;95.40;;;;;;4381183;32;20984;-64
2021/05/17 11:04:32;;;;;;;0.20;0.20;;;20.50;94.70;;;;;;4395424;32;20536;-64
2021/05/17 11:07:18;;;;;;;0.32;0.32;;;20.80;93.50;;;;;;4390779;32;20094;-64
2021/05/17 11:09:54;;;;;;;0.20;0.20;;;21.20;94.40;;;;;;4380600;32;20530;-66
2021/05/17 11:12:43;;;;;;;0.40;0.40;;;21.60;91.00;;;;;;4393572;32;20202;-66
2021/05/17 11:15:11;;;;;;;0.85;0.40;;;21.20;93.00;;;;;;4380109;32;20511;-66
2021/05/17 11:18:02;;;;;;;1.35;0.80;;;21.00;93.80;;;;;;4392012;32;20128;-66
2021/05/17 11:20:46;;;;;;;0.20;0.20;;;21.30;92.20;;;;;;4382732;32;20081;-66
2021/05/17 11:23:17;;;;;;;0.20;0.20;;;21.00;92.20;;;;;;4393302;32;20086;-66
2021/05/17 11:26:12;;;;;;;3.70;0.65;;;20.30;94.80;;;;;;4392830;32;20106;-66
2021/05/17 11:28:41;;;;;;;0.52;0.40;;;20.30;95.50;;;;;;4392839;32;20552;-66
2021/05/17 11:33:48;;;;;;;0.30;0.30;;;20.70;94.20;;;;;;4391948;32;20428;-66
2021/05/17 11:36:17;;;;;;;0.25;0.25;;;21.00;94.60;;;;;;4394335;32;20107;-66
2021/05/17 11:39:22;;;;;;;0.20;0.20;;;21.70;95.00;;;;;;4380772;32;20193;-66
2021/05/17 11:41:55;;;;;;;0.10;0.10;;;22.50;91.90;;;;;;4372207;32;20129;-66
2021/05/17 11:44:28;;;;;;;0.13;0.13;;;22.80;89.40;;;;;;4394699;32;20114;-66
2021/05/17 11:46:56;;;;;;;0.10;0.10;;;23.30;86.90;;;;;;4377149;32;20140;-67
2021/05/17 11:49:23;;;;;;;0.10;0.10;;;23.60;83.50;;;;;;4393730;32;20542;-67
2021/05/17 11:51:51;;;;;;;0.10;0.10;;;23.60;81.20;;;;;;4394836;32;20159;-67
2021/05/17 11:54:17;;;;;;;0.10;0.10;;;23.50;83.00;;;;;;4395407;32;20074;-67
2021/05/17 11:56:46;;;;;;;0.10;0.10;;;23.40;81.10;;;;;;4387784;32;20073;-67
2021/05/17 11:59:17;;;;;;;0.10;0.10;;;23.40;80.20;;;;;;4392020;32;20083;-66
2021/05/17 12:01:45;;;;;;;0.20;0.20;;;23.20;83.30;;;;;;4395468;32;20533;-66
2021/05/17 12:04:14;;;;;;;0.10;0.10;;;22.80;84.40;;;;;;4380818;32;20127;-66
2021/05/17 12:06:42;;;;;;;0.30;0.30;;;22.80;82.80;;;;;;4386296;32;20152;-66
2021/05/17 12:09:09;;;;;;;0.17;0.17;;;23.20;82.00;;;;;;4375441;32;20136;-66
2021/05/17 12:11:34;;;;;;;0.00;0.00;;;23.70;80.00;;;;;;4393219;32;20074;-67
2021/05/17 12:14:08;;;;;;;7.35;0.98;;;24.20;76.50;;;;;;4395904;32;20082;-67
2021/05/17 12:16:34;;;;;;;0.62;0.52;;;24.30;77.60;;;;;;4396545;32;20073;-65
2021/05/17 12:19:01;;;;;;;0.00;0.00;;;23.50;75.00;;;;;;4383796;32;20082;-65
2021/05/17 12:21:32;;;;;;;0.10;0.10;;;22.90;76.90;;;;;;4397046;32;20731;-65
2021/05/17 12:23:57;;;;;;;;;;;22.40;77.30;;;;;;4397569;32;20063;-66
2021/05/17 12:26:23;;;;;;;0.10;0.10;;;22.20;79.00;;;;;;4396450;32;19950;-67
2021/05/17 12:28:57;;;;;;;0.20;0.20;;;22.00;80.60;;;;;;4394075;32;20086;-67
2021/05/17 12:31:25;;;;;;;0.10;0.10;;;22.60;78.70;;;;;;4381937;32;20062;-67
2021/05/17 12:33:50;;;;;;;0.00;0.00;;;23.40;79.70;;;;;;4393563;32;20058;-67
2021/05/17 12:36:16;;;;;;;0.03;0.03;;;23.60;74.20;;;;;;4394878;32;20061;-71
2021/05/17 12:38:45;;;;;;;3.72;1.30;;;23.10;78.50;;;;;;4401392;32;20441;-67
2021/05/17 12:41:39;;;;;;;0.10;0.10;;;22.60;79.90;;;;;;4398949;32;20066;-67
2021/05/17 12:44:28;;;;;;;0.20;0.20;;;22.90;84.00;;;;;;4383486;32;20079;-67
2021/05/17 12:47:03;;;;;;;1.70;0.20;;;23.50;77.30;;;;;;4383735;32;20069;-67
2021/05/17 12:49:50;;;;;;;0.10;0.10;;;23.80;78.10;;;;;;4383451;32;20145;-66
2021/05/17 12:52:25;;;;;;;0.00;0.00;;;25.20;71.40;;;;;;4366975;32;20059;-66
2021/05/17 12:55:12;;;;;;;1.55;0.65;;;26.20;71.20;;;;;;4384092;32;20413;-67
2021/05/17 12:57:42;;;;;;;0.20;0.20;;;27.20;62.60;;;;;;4390441;32;20506;-67
2021/05/17 13:00:08;;;;;;;0.10;0.10;;;26.80;64.10;;;;;;4386473;32;20054;-66
2021/05/17 13:02:34;;;;;;;0.00;0.00;;;26.70;60.20;;;;;;4397802;32;20139;-66
2021/05/17 13:04:59;;;;;;;0.03;0.00;;;26.70;60.00;;;;;;4397163;32;20104;-66
2021/05/17 13:07:25;;;;;;;0.00;0.00;;;26.10;60.40;;;;;;4400144;32;20110;-66
2021/05/17 13:09:54;;;;;;;0.20;0.20;;;26.30;59.50;;;;;;4397652;32;20198;-66
2021/05/17 13:12:20;;;;;;;0.10;0.10;;;26.80;58.80;;;;;;4384244;32;20129;-66